Time;durP1;ratioP1;P1;durP2;ratioP2;P2;SDS_P1;SDS_P2;PMS_P1;PMS_P2;Temp;Humidity;BMP_temperature;BMP_pressure;BME280_temperature;BME280_humidity;BME280_pressure;Samples;Min_cycle;Max_cycle;Signal;HPM_P1;HPM_P2
2023/09/20 00:01:59;;;;;;;10.48;3.47;;;;;;;;;;773434;180;919549;-70
2023/09/20 00:04:24;;;;;;;12.93;3.67;;;;;;;;;;775417;177;904823;-69
2023/09/20 00:06:53;;;;;;;7.57;3.30;;;;;;;;;;769057;181;919781;-70
2023/09/20 00:09:17;;;;;;;8.40;3.53;;;;;;;;;;774410;179;918719;-60
2023/09/20 00:11:44;;;;;;;8.48;3.87;;;;;;;;;;774320;179;920367;-61
2023/09/20 00:14:08;;;;;;;11.50;3.83;;;;;;;;;;780243;180;917941;-71
2023/09/20 00:16:34;;;;;;;6.53;3.60;;;;;;;;;;771392;180;920679;-61
2023/09/20 00:18:59;;;;;;;8.45;3.50;;;;;;;;;;772895;180;918626;-70
2023/09/20 00:21:25;;;;;;;8.27;3.77;;;;;;;;;;777105;180;922576;-70
2023/09/20 00:23:51;;;;;;;9.07;3.87;;;;;;;;;;777936;180;816268;-60
2023/09/20 00:26:18;;;;;;;10.43;3.60;;;;;;;;;;771473;178;817008;-70
2023/09/20 00:28:46;;;;;;;7.62;3.30;;;;;;;;;;777145;181;918361;-61
2023/09/20 00:31:09;;;;;;;25.33;4.80;;;;;;;;;;768968;180;919937;-61
2023/09/20 00:33:35;;;;;;;22.07;5.97;;;;;;;;;;774198;180;919147;-62
2023/09/20 00:36:01;;;;;;;4.70;3.20;;;;;;;;;;773889;180;918948;-70
2023/09/20 00:38:27;;;;;;;5.03;3.00;;;;;;;;;;778326;180;818285;-60
2023/09/20 00:40:53;;;;;;;29.03;5.60;;;;;;;;;;768646;180;922315;-70
2023/09/20 00:43:22;;;;;;;8.90;3.53;;;;;;;;;;769521;178;918822;-69
2023/09/20 00:45:48;;;;;;;11.83;4.83;;;;;;;;;;774834;181;922261;-60
2023/09/20 00:48:15;;;;;;;4.53;2.95;;;;;;;;;;772748;178;918101;-60
2023/09/20 00:50:42;;;;;;;11.40;4.03;;;;;;;;;;773391;181;835793;-61
2023/09/20 00:53:06;;;;;;;10.40;3.60;;;;;;;;;;769998;181;919368;-68
2023/09/20 00:55:32;;;;;;;7.20;3.80;;;;;;;;;;763287;181;919057;-69
2023/09/20 00:57:59;;;;;;;7.93;3.70;;;;;;;;;;766314;180;918955;-60
2023/09/20 01:00:27;;;;;;;17.10;4.53;;;;;;;;;;775724;179;919100;-61
2023/09/20 01:02:50;;;;;;;66.18;9.27;;;;;;;;;;781051;178;860763;-59
2023/09/20 01:05:15;;;;;;;18.90;4.90;;;;;;;;;;776025;178;871681;-60
2023/09/20 01:07:42;;;;;;;6.23;3.70;;;;;;;;;;777809;177;853584;-60
2023/09/20 01:10:08;;;;;;;6.13;3.20;;;;;;;;;;779245;177;921956;-60
2023/09/20 01:12:33;;;;;;;14.37;4.30;;;;;;;;;;774683;177;920585;-70
2023/09/20 01:14:59;;;;;;;5.12;3.90;;;;;;;;;;775545;177;919523;-60
2023/09/20 01:17:25;;;;;;;5.80;3.83;;;;;;;;;;773707;181;918785;-59
2023/09/20 01:19:50;;;;;;;5.97;3.77;;;;;;;;;;770039;179;915518;-70
2023/09/20 01:22:17;;;;;;;9.80;4.47;;;;;;;;;;771846;181;918931;-60
2023/09/20 01:24:43;;;;;;;7.30;4.20;;;;;;;;;;771021;180;918066;-70
2023/09/20 01:27:08;;;;;;;10.73;4.50;;;;;;;;;;775099;181;918440;-61
2023/09/20 01:29:35;;;;;;;13.80;4.57;;;;;;;;;;775790;180;919193;-60
2023/09/20 01:32:00;;;;;;;14.33;3.90;;;;;;;;;;772358;181;918791;-60
2023/09/20 01:34:26;;;;;;;5.12;3.42;;;;;;;;;;778297;180;918263;-61
2023/09/20 01:36:51;;;;;;;5.07;3.53;;;;;;;;;;771059;180;920347;-70
2023/09/20 01:39:17;;;;;;;6.78;3.37;;;;;;;;;;772835;180;920990;-61
2023/09/20 01:41:46;;;;;;;7.10;4.30;;;;;;;;;;767545;179;917984;-61
2023/09/20 01:44:10;;;;;;;7.37;3.83;;;;;;;;;;772802;177;813652;-61
2023/09/20 01:46:36;;;;;;;6.33;4.27;;;;;;;;;;771535;179;938254;-61
2023/09/20 01:49:01;;;;;;;5.93;4.20;;;;;;;;;;764919;177;921441;-62
2023/09/20 01:51:27;;;;;;;6.43;4.10;;;;;;;;;;775514;180;917796;-60
2023/09/20 01:53:54;;;;;;;7.70;4.20;;;;;;;;;;768802;180;919337;-71
2023/09/20 01:56:18;;;;;;;7.80;4.93;;;;;;;;;;771223;179;919391;-61
2023/09/20 01:58:44;;;;;;;6.47;3.70;;;;;;;;;;773113;180;919143;-61
2023/09/20 02:01:10;;;;;;;6.10;3.50;;;;;;;;;;773349;180;921428;-61
2023/09/20 02:03:39;;;;;;;7.77;4.07;;;;;;;;;;769314;180;919492;-59
2023/09/20 02:06:02;;;;;;;13.13;4.20;;;;;;;;;;781662;178;918910;-61
2023/09/20 02:08:27;;;;;;;108.33;9.97;;;;;;;;;;773936;180;915783;-71
2023/09/20 02:10:53;;;;;;;205.33;14.03;;;;;;;;;;775130;177;916193;-61
2023/09/20 02:13:19;;;;;;;18.47;5.27;;;;;;;;;;780357;177;915178;-61
2023/09/20 02:15:46;;;;;;;5.47;3.85;;;;;;;;;;773954;181;917751;-71
2023/09/20 02:18:11;;;;;;;5.60;3.50;;;;;;;;;;775255;179;895658;-60
2023/09/20 02:20:37;;;;;;;10.40;3.27;;;;;;;;;;771828;178;959034;-71
2023/09/20 02:23:03;;;;;;;4.47;3.30;;;;;;;;;;782589;178;817781;-62
2023/09/20 02:25:29;;;;;;;9.80;3.95;;;;;;;;;;772282;181;920280;-61
2023/09/20 02:27:57;;;;;;;6.93;3.73;;;;;;;;;;775135;181;919186;-71
2023/09/20 02:30:24;;;;;;;8.70;3.60;;;;;;;;;;779215;178;919046;-71
2023/09/20 02:32:46;;;;;;;7.93;3.30;;;;;;;;;;775062;180;920452;-71
2023/09/20 02:35:12;;;;;;;9.10;3.35;;;;;;;;;;773416;179;918395;-61
2023/09/20 02:37:40;;;;;;;10.10;3.27;;;;;;;;;;767941;182;926069;-62
2023/09/20 02:40:12;;;;;;;41.40;5.43;;;;;;;;;;771698;179;916870;-71
2023/09/20 02:42:40;;;;;;;11.73;3.20;;;;;;;;;;774279;178;914528;-72
2023/09/20 02:45:07;;;;;;;25.67;4.50;;;;;;;;;;767902;179;919152;-71
2023/09/20 02:47:32;;;;;;;120.97;7.40;;;;;;;;;;774940;181;916823;-62
2023/09/20 02:49:58;;;;;;;229.17;13.70;;;;;;;;;;769039;181;918854;-71
2023/09/20 02:52:24;;;;;;;3.67;2.23;;;;;;;;;;770815;181;921540;-62
2023/09/20 02:54:51;;;;;;;4.77;3.30;;;;;;;;;;779979;180;914989;-62
2023/09/20 02:57:15;;;;;;;7.20;3.00;;;;;;;;;;764248;180;919475;-61
2023/09/20 02:59:41;;;;;;;25.10;3.67;;;;;;;;;;774714;177;918564;-71
2023/09/20 03:02:08;;;;;;;65.17;6.17;;;;;;;;;;773029;180;918130;-61
2023/09/20 03:04:33;;;;;;;70.63;5.53;;;;;;;;;;779088;180;919038;-61
2023/09/20 03:06:59;;;;;;;4.43;2.90;;;;;;;;;;773108;179;919235;-72
2023/09/20 03:09:24;;;;;;;4.37;3.33;;;;;;;;;;774100;180;825043;-61
2023/09/20 03:11:53;;;;;;;6.97;3.25;;;;;;;;;;775859;180;920954;-72
2023/09/20 03:14:17;;;;;;;7.60;2.60;;;;;;;;;;774621;179;913472;-72
2023/09/20 03:16:44;;;;;;;11.40;3.60;;;;;;;;;;764413;180;919218;-61
2023/09/20 03:19:09;;;;;;;20.63;3.50;;;;;;;;;;773837;181;918480;-61
2023/09/20 03:21:35;;;;;;;5.03;3.97;;;;;;;;;;772416;180;919915;-72
2023/09/20 03:24:05;;;;;;;4.47;3.53;;;;;;;;;;770169;178;918831;-61
2023/09/20 03:26:27;;;;;;;5.77;3.57;;;;;;;;;;775509;178;919162;-60
2023/09/20 03:28:56;;;;;;;4.43;3.23;;;;;;;;;;777818;178;918503;-72
2023/09/20 03:31:18;;;;;;;4.23;3.60;;;;;;;;;;771974;180;922696;-72
2023/09/20 03:33:44;;;;;;;7.83;3.57;;;;;;;;;;777152;180;918383;-61
2023/09/20 03:36:15;;;;;;;5.00;2.93;;;;;;;;;;780454;180;919282;-59
2023/09/20 03:38:36;;;;;;;4.00;2.90;;;;;;;;;;770986;180;880758;-61
2023/09/20 03:41:04;;;;;;;8.30;2.80;;;;;;;;;;775234;179;919253;-72
2023/09/20 03:43:27;;;;;;;25.23;3.50;;;;;;;;;;773785;180;919793;-71
2023/09/20 03:45:54;;;;;;;4.00;2.43;;;;;;;;;;773765;178;918022;-72
2023/09/20 03:48:19;;;;;;;58.93;6.30;;;;;;;;;;772617;178;921291;-62
2023/09/20 03:50:45;;;;;;;4.43;2.93;;;;;;;;;;778921;178;915485;-65
2023/09/20 03:53:11;;;;;;;4.20;2.70;;;;;;;;;;772703;179;914879;-72
2023/09/20 03:55:37;;;;;;;4.90;3.43;;;;;;;;;;769913;177;923288;-62
2023/09/20 03:58:03;;;;;;;7.73;3.13;;;;;;;;;;771481;180;943380;-71
2023/09/20 04:00:31;;;;;;;4.73;3.07;;;;;;;;;;782206;177;818020;-72
2023/09/20 04:02:55;;;;;;;6.70;3.60;;;;;;;;;;774136;178;915952;-70
2023/09/20 04:05:20;;;;;;;5.73;3.50;;;;;;;;;;773671;177;937248;-72
2023/09/20 04:07:47;;;;;;;5.17;3.27;;;;;;;;;;774341;180;915724;-62
2023/09/20 04:10:13;;;;;;;6.90;3.22;;;;;;;;;;761734;178;917041;-61
2023/09/20 04:12:38;;;;;;;3.90;2.70;;;;;;;;;;774108;179;916783;-61
2023/09/20 04:15:04;;;;;;;5.90;2.97;;;;;;;;;;778031;179;919692;-60
2023/09/20 04:17:31;;;;;;;5.53;3.20;;;;;;;;;;776440;177;812911;-71
2023/09/20 04:19:55;;;;;;;4.03;3.10;;;;;;;;;;769525;180;919813;-61
2023/09/20 04:22:21;;;;;;;6.50;3.10;;;;;;;;;;774182;180;918257;-71
2023/09/20 04:24:47;;;;;;;4.50;2.90;;;;;;;;;;773167;182;920064;-72
2023/09/20 04:27:13;;;;;;;13.63;4.17;;;;;;;;;;772571;178;916506;-61
2023/09/20 04:29:39;;;;;;;20.23;3.83;;;;;;;;;;769632;180;918537;-60
2023/09/20 04:32:05;;;;;;;20.07;3.83;;;;;;;;;;780053;180;893027;-61
2023/09/20 04:34:31;;;;;;;12.43;3.60;;;;;;;;;;775001;178;919559;-71
2023/09/20 04:36:56;;;;;;;17.33;3.93;;;;;;;;;;780139;179;911686;-72
2023/09/20 04:39:24;;;;;;;24.43;4.10;;;;;;;;;;778894;179;708289;-62
2023/09/20 04:41:49;;;;;;;48.37;3.63;;;;;;;;;;773630;179;916857;-62
2023/09/20 04:44:15;;;;;;;5.55;2.85;;;;;;;;;;776429;180;918858;-61
2023/09/20 04:46:41;;;;;;;57.23;6.27;;;;;;;;;;779984;177;921571;-62
2023/09/20 04:49:07;;;;;;;30.30;3.63;;;;;;;;;;772967;180;610255;-61
2023/09/20 04:51:32;;;;;;;3.90;2.53;;;;;;;;;;777153;178;619123;-62
2023/09/20 04:53:58;;;;;;;16.47;2.67;;;;;;;;;;776469;179;618941;-71
2023/09/20 04:56:24;;;;;;;3.97;2.37;;;;;;;;;;770472;182;616931;-72
2023/09/20 04:58:50;;;;;;;6.47;2.47;;;;;;;;;;771711;179;630788;-70
2023/09/20 05:01:17;;;;;;;15.37;2.60;;;;;;;;;;779985;178;625372;-72
2023/09/20 05:03:42;;;;;;;4.53;2.17;;;;;;;;;;780627;177;618928;-72
2023/09/20 05:06:08;;;;;;;10.63;2.63;;;;;;;;;;776208;181;620536;-71
2023/09/20 05:08:33;;;;;;;12.35;2.55;;;;;;;;;;775029;178;922970;-61
2023/09/20 05:10:59;;;;;;;4.37;2.10;;;;;;;;;;777876;178;916172;-61
2023/09/20 05:13:25;;;;;;;3.37;2.27;;;;;;;;;;771241;178;919548;-61
2023/09/20 05:15:51;;;;;;;3.00;2.10;;;;;;;;;;771132;180;919846;-71
2023/09/20 05:18:18;;;;;;;5.10;2.10;;;;;;;;;;774199;179;918720;-70
2023/09/20 05:20:45;;;;;;;3.05;2.00;;;;;;;;;;780376;177;918975;-60
2023/09/20 05:23:08;;;;;;;2.97;1.73;;;;;;;;;;768962;180;922628;-72
2023/09/20 05:25:34;;;;;;;2.83;1.90;;;;;;;;;;771245;178;925009;-62
2023/09/20 05:28:01;;;;;;;4.13;1.83;;;;;;;;;;779741;179;820632;-62
2023/09/20 05:30:26;;;;;;;5.93;2.58;;;;;;;;;;773733;180;885829;-62
2023/09/20 05:32:53;;;;;;;3.43;2.47;;;;;;;;;;771885;180;919804;-61
2023/09/20 05:35:18;;;;;;;2.80;1.97;;;;;;;;;;776724;179;870467;-60
2023/09/20 05:37:44;;;;;;;3.50;2.60;;;;;;;;;;772965;178;908633;-62
2023/09/20 05:40:17;;;;;;;5.83;2.70;;;;;;;;;;773513;177;920127;-71
2023/09/20 05:42:38;;;;;;;3.67;2.37;;;;;;;;;;774170;178;922412;-62
2023/09/20 05:45:05;;;;;;;4.50;2.12;;;;;;;;;;777138;180;918830;-71
2023/09/20 05:47:30;;;;;;;3.07;2.13;;;;;;;;;;775543;179;914193;-71
2023/09/20 05:49:56;;;;;;;3.70;2.93;;;;;;;;;;774912;177;919754;-62
2023/09/20 05:52:21;;;;;;;4.00;2.20;;;;;;;;;;777585;177;864749;-71
2023/09/20 05:54:47;;;;;;;3.70;2.57;;;;;;;;;;767649;181;927683;-70
2023/09/20 05:57:13;;;;;;;4.33;2.00;;;;;;;;;;770381;178;918686;-62
2023/09/20 05:59:39;;;;;;;3.50;2.20;;;;;;;;;;775827;181;918685;-71
2023/09/20 06:02:05;;;;;;;8.80;3.03;;;;;;;;;;774940;178;918871;-61
2023/09/20 06:04:31;;;;;;;6.50;3.40;;;;;;;;;;773598;178;919447;-60
2023/09/20 06:06:57;;;;;;;5.07;2.90;;;;;;;;;;774091;179;917996;-69
2023/09/20 06:09:23;;;;;;;5.03;2.60;;;;;;;;;;774365;182;918932;-71
2023/09/20 06:11:48;;;;;;;5.40;2.80;;;;;;;;;;764307;181;919539;-62
2023/09/20 06:14:16;;;;;;;5.30;3.40;;;;;;;;;;762049;181;918989;-70
2023/09/20 06:16:40;;;;;;;3.70;2.60;;;;;;;;;;774467;181;919183;-64
2023/09/20 06:19:06;;;;;;;7.63;3.17;;;;;;;;;;772640;180;919206;-71
2023/09/20 06:21:32;;;;;;;6.17;3.67;;;;;;;;;;771789;180;919149;-71
2023/09/20 06:23:58;;;;;;;5.60;3.43;;;;;;;;;;777881;178;826711;-70
2023/09/20 06:26:24;;;;;;;4.60;3.00;;;;;;;;;;769071;179;838061;-63
2023/09/20 06:28:49;;;;;;;6.45;3.47;;;;;;;;;;769065;181;913747;-71
2023/09/20 06:31:18;;;;;;;12.23;3.83;;;;;;;;;;781882;177;847373;-62
2023/09/20 06:33:41;;;;;;;7.60;4.33;;;;;;;;;;772916;178;911175;-71
2023/09/20 06:36:07;;;;;;;5.30;3.57;;;;;;;;;;771581;180;919526;-71
2023/09/20 06:38:35;;;;;;;6.73;4.00;;;;;;;;;;771136;180;914468;-71
2023/09/20 06:41:01;;;;;;;7.28;3.85;;;;;;;;;;772119;180;913968;-63
2023/09/20 06:43:27;;;;;;;7.97;4.07;;;;;;;;;;770203;179;873781;-62
2023/09/20 06:45:52;;;;;;;5.57;4.03;;;;;;;;;;758345;181;919780;-63
2023/09/20 06:48:20;;;;;;;8.00;4.13;;;;;;;;;;767573;180;913480;-70
2023/09/20 06:50:46;;;;;;;5.80;4.00;;;;;;;;;;774827;179;910041;-62
2023/09/20 06:53:10;;;;;;;6.57;4.40;;;;;;;;;;768779;177;920580;-70
2023/09/20 06:55:36;;;;;;;5.50;3.67;;;;;;;;;;776582;180;819065;-70
2023/09/20 06:58:04;;;;;;;5.93;3.70;;;;;;;;;;773189;180;863535;-70
2023/09/20 07:00:28;;;;;;;7.13;3.70;;;;;;;;;;772821;178;918070;-62
2023/09/20 07:02:54;;;;;;;5.20;3.10;;;;;;;;;;775509;177;816007;-70
2023/09/20 07:05:21;;;;;;;5.00;3.40;;;;;;;;;;779411;180;920165;-63
2023/09/20 07:07:47;;;;;;;4.27;2.60;;;;;;;;;;774245;180;921411;-70
2023/09/20 07:10:11;;;;;;;5.83;3.10;;;;;;;;;;767214;179;918148;-62
2023/09/20 07:12:38;;;;;;;5.30;2.70;;;;;;;;;;780870;180;919773;-62
2023/09/20 07:15:06;;;;;;;4.10;2.63;;;;;;;;;;774834;180;919272;-69
2023/09/20 07:17:29;;;;;;;8.33;3.47;;;;;;;;;;771073;181;918833;-69
2023/09/20 07:19:57;;;;;;;4.60;2.20;;;;;;;;;;777833;178;919299;-61
2023/09/20 07:22:21;;;;;;;6.93;2.70;;;;;;;;;;774665;179;918816;-62
2023/09/20 07:24:47;;;;;;;3.63;2.50;;;;;;;;;;774944;179;919028;-60
2023/09/20 07:27:12;;;;;;;11.93;2.67;;;;;;;;;;772935;179;878013;-68
2023/09/20 07:29:38;;;;;;;5.73;2.60;;;;;;;;;;771849;179;918567;-60
2023/09/20 07:32:04;;;;;;;5.50;2.73;;;;;;;;;;772226;181;919445;-69
2023/09/20 07:34:33;;;;;;;4.78;2.40;;;;;;;;;;774014;180;919524;-60
2023/09/20 07:36:57;;;;;;;6.63;2.70;;;;;;;;;;778303;181;917862;-61
2023/09/20 07:39:22;;;;;;;3.30;1.80;;;;;;;;;;766561;180;919170;-69
2023/09/20 07:41:50;;;;;;;3.17;1.80;;;;;;;;;;772379;178;919368;-60
2023/09/20 07:44:23;;;;;;;4.43;1.85;;;;;;;;;;779455;177;918792;-61
2023/09/20 07:46:42;;;;;;;3.53;2.27;;;;;;;;;;759556;181;919561;-60
2023/09/20 07:49:09;;;;;;;3.33;2.08;;;;;;;;;;769488;181;916823;-68
2023/09/20 07:51:36;;;;;;;4.47;2.00;;;;;;;;;;772912;180;918466;-61
2023/09/20 07:54:01;;;;;;;3.33;2.15;;;;;;;;;;767109;181;921566;-70
2023/09/20 07:56:28;;;;;;;5.63;2.30;;;;;;;;;;758578;181;918421;-60
2023/09/20 07:58:53;;;;;;;5.65;2.60;;;;;;;;;;771815;180;919238;-68
2023/09/20 08:01:18;;;;;;;3.20;1.80;;;;;;;;;;780288;180;816176;-68
2023/09/20 08:03:52;;;;;;;4.20;2.40;;;;;;;;;;770940;181;838078;-62
2023/09/20 08:06:18;;;;;;;3.90;2.10;;;;;;;;;;770889;177;918666;-61
2023/09/20 08:08:44;;;;;;;3.90;2.07;;;;;;;;;;757700;184;922645;-68
2023/09/20 08:11:10;;;;;;;6.43;2.40;;;;;;;;;;778726;180;919314;-70
2023/09/20 08:13:36;;;;;;;4.73;2.43;;;;;;;;;;772108;179;917154;-69
2023/09/20 08:16:03;;;;;;;3.97;2.37;;;;;;;;;;775149;177;918221;-69
2023/09/20 08:20:59;;;;;;;5.17;2.43;;;;;;;;;;771981;178;914274;-61
2023/09/20 09:01:20;;;;;;;3.03;1.93;;;;;;;;;;773911;180;921182;-70
2023/09/20 09:03:46;;;;;;;5.03;2.00;;;;;;;;;;774293;179;907408;-61
2023/09/20 09:06:12;;;;;;;3.90;2.30;;;;;;;;;;774972;180;895249;-68
2023/09/20 09:08:38;;;;;;;3.67;1.87;;;;;;;;;;772472;181;918684;-61
2023/09/20 09:11:03;;;;;;;4.00;2.50;;;;;;;;;;774060;180;918556;-61
2023/09/20 09:13:30;;;;;;;5.13;2.30;;;;;;;;;;778074;180;919850;-60
2023/09/20 09:15:55;;;;;;;4.03;1.80;;;;;;;;;;773228;181;931151;-69
2023/09/20 09:18:21;;;;;;;8.87;2.23;;;;;;;;;;769909;180;920712;-70
2023/09/20 09:20:47;;;;;;;11.13;3.30;;;;;;;;;;777102;179;917970;-67
2023/09/20 09:23:13;;;;;;;3.40;2.13;;;;;;;;;;776842;177;922190;-60
2023/09/20 09:25:38;;;;;;;3.33;1.90;;;;;;;;;;771684;181;918726;-69
2023/09/20 09:28:04;;;;;;;3.60;1.90;;;;;;;;;;765819;181;921014;-62
2023/09/20 09:30:30;;;;;;;5.93;2.10;;;;;;;;;;768239;182;822466;-64
2023/09/20 09:32:56;;;;;;;3.73;1.80;;;;;;;;;;767535;181;815660;-69
2023/09/20 09:35:22;;;;;;;4.40;1.80;;;;;;;;;;773954;181;918601;-69
2023/09/20 09:37:48;;;;;;;4.23;2.13;;;;;;;;;;774936;181;918333;-70
2023/09/20 09:40:14;;;;;;;2.80;1.60;;;;;;;;;;773762;180;919451;-69
2023/09/20 09:42:40;;;;;;;6.63;2.10;;;;;;;;;;773973;180;919533;-61
2023/09/20 09:45:06;;;;;;;3.75;2.00;;;;;;;;;;777845;181;916944;-61
2023/09/20 09:47:34;;;;;;;4.50;1.90;;;;;;;;;;775508;180;818946;-69
2023/09/20 09:49:59;;;;;;;4.10;1.80;;;;;;;;;;775698;180;894540;-70
2023/09/20 09:52:24;;;;;;;6.83;2.27;;;;;;;;;;775472;180;877297;-61
2023/09/20 09:54:51;;;;;;;6.23;1.70;;;;;;;;;;767520;178;918598;-60
2023/09/20 09:57:18;;;;;;;3.33;1.80;;;;;;;;;;765560;181;926553;-61
2023/09/20 09:59:42;;;;;;;3.70;1.50;;;;;;;;;;767102;180;920305;-66
2023/09/20 10:02:09;;;;;;;3.10;1.90;;;;;;;;;;773223;180;816443;-60
2023/09/20 10:04:36;;;;;;;3.43;1.67;;;;;;;;;;771635;177;922603;-60
2023/09/20 10:07:01;;;;;;;3.60;1.97;;;;;;;;;;758688;180;919431;-61
2023/09/20 10:09:27;;;;;;;4.73;1.80;;;;;;;;;;774277;181;813225;-68
2023/09/20 10:11:53;;;;;;;3.97;2.22;;;;;;;;;;769644;180;915871;-60
2023/09/20 10:14:22;;;;;;;5.10;1.60;;;;;;;;;;772001;178;815167;-68
2023/09/20 10:16:45;;;;;;;4.73;1.53;;;;;;;;;;777729;177;920365;-61
2023/09/20 10:19:13;;;;;;;9.40;1.70;;;;;;;;;;771504;180;918917;-68
2023/09/20 10:21:40;;;;;;;2.83;1.50;;;;;;;;;;771794;177;931723;-68
2023/09/20 10:24:07;;;;;;;5.07;1.60;;;;;;;;;;769815;179;922192;-68
2023/09/20 10:26:31;;;;;;;2.70;1.50;;;;;;;;;;776803;180;921270;-68
2023/09/20 10:28:57;;;;;;;4.77;1.73;;;;;;;;;;760602;182;940730;-60
2023/09/20 10:31:22;;;;;;;3.20;1.90;;;;;;;;;;774120;180;914489;-69
2023/09/20 10:33:48;;;;;;;4.00;1.60;;;;;;;;;;782508;178;920463;-60
2023/09/20 10:36:18;;;;;;;4.83;2.10;;;;;;;;;;778177;180;919243;-59
2023/09/20 10:38:44;;;;;;;3.30;1.77;;;;;;;;;;772474;179;919406;-61
2023/09/20 10:41:10;;;;;;;2.90;1.10;;;;;;;;;;777417;181;919364;-66
2023/09/20 10:43:43;;;;;;;2.93;1.50;;;;;;;;;;771258;181;918492;-68
2023/09/20 10:46:08;;;;;;;2.97;1.60;;;;;;;;;;766948;181;919329;-60
2023/09/20 10:48:38;;;;;;;4.53;1.90;;;;;;;;;;773920;180;929721;-69
2023/09/20 10:51:03;;;;;;;2.70;1.47;;;;;;;;;;779774;180;909930;-68
2023/09/20 10:53:32;;;;;;;3.30;1.83;;;;;;;;;;771137;181;919651;-60
2023/09/20 10:55:58;;;;;;;3.07;1.60;;;;;;;;;;771756;180;919326;-61
2023/09/20 10:58:24;;;;;;;4.40;1.77;;;;;;;;;;764297;179;920785;-61
2023/09/20 11:00:50;;;;;;;2.73;1.40;;;;;;;;;;777431;180;919733;-60
2023/09/20 11:03:17;;;;;;;2.83;1.77;;;;;;;;;;769495;177;920181;-69
2023/09/20 11:05:42;;;;;;;3.90;1.60;;;;;;;;;;769889;180;909417;-60
2023/09/20 11:08:08;;;;;;;5.50;1.73;;;;;;;;;;777978;180;923209;-68
2023/09/20 11:10:33;;;;;;;2.57;1.40;;;;;;;;;;775570;179;919604;-64
2023/09/20 11:12:59;;;;;;;3.28;1.50;;;;;;;;;;770029;180;920261;-68
2023/09/20 11:15:25;;;;;;;3.47;1.70;;;;;;;;;;770939;180;918595;-67
2023/09/20 11:17:51;;;;;;;4.83;1.93;;;;;;;;;;773275;179;917635;-60
2023/09/20 11:20:16;;;;;;;3.70;1.30;;;;;;;;;;773756;179;919429;-60
2023/09/20 11:22:42;;;;;;;3.07;1.50;;;;;;;;;;772314;180;918960;-60
2023/09/20 11:25:08;;;;;;;4.00;2.10;;;;;;;;;;777588;180;917717;-68
2023/09/20 11:27:34;;;;;;;3.70;1.80;;;;;;;;;;768284;180;919656;-60
2023/09/20 11:30:04;;;;;;;4.70;1.47;;;;;;;;;;774573;180;921394;-66
2023/09/20 11:32:28;;;;;;;3.83;1.60;;;;;;;;;;773243;180;919371;-67
2023/09/20 11:34:55;;;;;;;3.37;1.60;;;;;;;;;;770653;180;918673;-68
2023/09/20 11:37:20;;;;;;;3.20;1.77;;;;;;;;;;774522;178;921509;-68
2023/09/20 11:39:46;;;;;;;4.60;1.80;;;;;;;;;;775088;181;840975;-68
2023/09/20 11:42:12;;;;;;;4.90;1.67;;;;;;;;;;774626;177;918962;-61
2023/09/20 11:44:38;;;;;;;2.50;1.40;;;;;;;;;;776619;177;918799;-68
2023/09/20 11:47:03;;;;;;;2.80;1.60;;;;;;;;;;777880;180;818430;-60
2023/09/20 11:49:29;;;;;;;6.70;2.00;;;;;;;;;;781929;180;919452;-68
2023/09/20 11:51:57;;;;;;;3.30;1.47;;;;;;;;;;771789;177;907538;-59
2023/09/20 11:54:25;;;;;;;3.73;1.67;;;;;;;;;;763212;182;917804;-68
2023/09/20 11:56:51;;;;;;;2.77;1.50;;;;;;;;;;775509;180;917587;-58
2023/09/20 11:59:16;;;;;;;2.50;1.37;;;;;;;;;;773320;180;915620;-59
2023/09/20 12:01:42;;;;;;;3.90;1.67;;;;;;;;;;770225;180;920433;-69
2023/09/20 12:04:08;;;;;;;3.30;1.70;;;;;;;;;;774896;180;816793;-59
2023/09/20 12:06:35;;;;;;;3.27;1.70;;;;;;;;;;774313;180;815091;-68
2023/09/20 12:09:00;;;;;;;2.80;1.50;;;;;;;;;;769035;180;914896;-59
2023/09/20 12:11:26;;;;;;;2.83;1.37;;;;;;;;;;774899;180;937212;-59
2023/09/20 12:13:52;;;;;;;3.40;1.63;;;;;;;;;;780909;178;916791;-59
2023/09/20 12:16:18;;;;;;;2.97;1.53;;;;;;;;;;774049;178;919651;-66
2023/09/20 12:18:44;;;;;;;7.03;1.50;;;;;;;;;;769100;181;919680;-67
2023/09/20 12:21:10;;;;;;;3.00;1.60;;;;;;;;;;779116;181;923316;-59
2023/09/20 12:23:36;;;;;;;4.60;1.53;;;;;;;;;;771182;177;919499;-67
2023/09/20 12:26:03;;;;;;;8.03;2.17;;;;;;;;;;774197;181;912657;-68
2023/09/20 12:28:28;;;;;;;4.80;2.07;;;;;;;;;;774380;181;920433;-59
2023/09/20 12:30:54;;;;;;;6.20;2.50;;;;;;;;;;777846;180;816545;-58
2023/09/20 12:33:20;;;;;;;3.80;1.70;;;;;;;;;;769782;181;816772;-67
2023/09/20 12:35:46;;;;;;;10.43;2.47;;;;;;;;;;772936;181;911029;-67
2023/09/20 12:38:12;;;;;;;3.20;1.57;;;;;;;;;;778769;178;813382;-58
2023/09/20 12:40:38;;;;;;;4.33;1.57;;;;;;;;;;775343;178;917771;-67
2023/09/20 12:43:05;;;;;;;2.70;1.50;;;;;;;;;;772322;178;919700;-59
2023/09/20 12:45:30;;;;;;;4.67;1.77;;;;;;;;;;778591;177;915232;-67
2023/09/20 12:47:55;;;;;;;4.10;1.60;;;;;;;;;;771068;180;919655;-58
2023/09/20 12:50:21;;;;;;;3.20;1.70;;;;;;;;;;772961;181;919014;-67
2023/09/20 12:52:47;;;;;;;7.87;2.40;;;;;;;;;;773580;181;918832;-58
2023/09/20 12:55:13;;;;;;;4.60;1.50;;;;;;;;;;773830;180;917626;-58
2023/09/20 12:57:40;;;;;;;3.80;1.57;;;;;;;;;;776519;179;920140;-67
2023/09/20 13:00:09;;;;;;;2.43;1.40;;;;;;;;;;775600;180;919435;-59
2023/09/20 13:02:33;;;;;;;2.93;1.50;;;;;;;;;;781333;181;918499;-67
2023/09/20 13:04:59;;;;;;;2.50;1.40;;;;;;;;;;772311;177;918878;-66
2023/09/20 13:07:26;;;;;;;4.50;1.70;;;;;;;;;;776722;180;922321;-67
2023/09/20 13:09:51;;;;;;;2.97;1.50;;;;;;;;;;773971;180;816782;-58
2023/09/20 13:12:16;;;;;;;4.43;1.40;;;;;;;;;;771279;179;919418;-58
2023/09/20 13:14:42;;;;;;;4.90;1.93;;;;;;;;;;775865;180;920351;-66
2023/09/20 13:17:09;;;;;;;3.43;1.70;;;;;;;;;;778538;177;892199;-67
2023/09/20 13:19:34;;;;;;;4.40;1.83;;;;;;;;;;770632;181;919083;-58
2023/09/20 13:22:01;;;;;;;6.87;1.70;;;;;;;;;;773945;181;816314;-67
2023/09/20 13:24:26;;;;;;;4.60;1.60;;;;;;;;;;774150;180;921365;-58
2023/09/20 13:26:52;;;;;;;2.90;1.63;;;;;;;;;;777812;180;915099;-67
2023/09/20 13:29:17;;;;;;;7.00;2.07;;;;;;;;;;774232;179;919843;-57
2023/09/20 13:31:44;;;;;;;7.40;1.80;;;;;;;;;;768967;180;919033;-58
2023/09/20 13:34:15;;;;;;;4.30;1.70;;;;;;;;;;778857;179;878364;-67
2023/09/20 13:36:35;;;;;;;5.17;1.57;;;;;;;;;;774047;177;918626;-58
2023/09/20 13:39:01;;;;;;;5.07;1.80;;;;;;;;;;769269;179;919858;-68
2023/09/20 13:41:27;;;;;;;3.27;1.73;;;;;;;;;;777246;178;919451;-58
2023/09/20 13:43:53;;;;;;;2.67;1.47;;;;;;;;;;772455;177;919654;-57
2023/09/20 13:46:19;;;;;;;3.70;1.80;;;;;;;;;;772062;177;919796;-68
2023/09/20 13:48:46;;;;;;;2.50;1.42;;;;;;;;;;775349;179;920710;-58
2023/09/20 13:51:12;;;;;;;2.40;1.50;;;;;;;;;;779242;177;919344;-58
2023/09/20 13:53:39;;;;;;;4.90;1.90;;;;;;;;;;776850;178;919717;-58
2023/09/20 13:56:04;;;;;;;2.97;1.73;;;;;;;;;;768463;180;916775;-66
2023/09/20 13:58:31;;;;;;;3.03;1.60;;;;;;;;;;776390;181;829179;-58
2023/09/20 14:00:55;;;;;;;2.80;1.63;;;;;;;;;;776000;177;819635;-66
2023/09/20 14:03:21;;;;;;;4.53;1.73;;;;;;;;;;770006;181;927883;-57
2023/09/20 14:05:47;;;;;;;3.50;1.53;;;;;;;;;;778442;177;915850;-57
2023/09/20 14:08:13;;;;;;;3.33;1.60;;;;;;;;;;777012;179;921324;-66
2023/09/20 14:10:40;;;;;;;2.47;1.27;;;;;;;;;;779812;178;813378;-58
2023/09/20 14:13:07;;;;;;;2.70;1.60;;;;;;;;;;775600;180;919458;-58
2023/09/20 14:15:30;;;;;;;3.57;1.83;;;;;;;;;;764058;182;919252;-67
2023/09/20 14:17:57;;;;;;;3.97;2.30;;;;;;;;;;774337;180;920201;-66
2023/09/20 14:20:22;;;;;;;3.17;1.77;;;;;;;;;;774191;179;919656;-65
2023/09/20 14:22:49;;;;;;;4.00;1.73;;;;;;;;;;774308;181;919443;-65
2023/09/20 14:25:14;;;;;;;3.08;1.12;;;;;;;;;;770343;180;923886;-66
2023/09/20 14:27:40;;;;;;;3.13;1.53;;;;;;;;;;774413;181;818607;-66
2023/09/20 14:30:08;;;;;;;2.60;1.50;;;;;;;;;;779557;180;919094;-66
2023/09/20 14:32:33;;;;;;;2.90;1.63;;;;;;;;;;774015;180;919621;-57
2023/09/20 14:34:59;;;;;;;2.50;1.37;;;;;;;;;;771158;181;810224;-67
2023/09/20 14:37:26;;;;;;;3.60;1.87;;;;;;;;;;782298;177;905946;-66
2023/09/20 14:39:52;;;;;;;4.40;1.50;;;;;;;;;;768519;180;918251;-57
2023/09/20 14:42:16;;;;;;;2.80;1.30;;;;;;;;;;772818;180;918035;-57
2023/09/20 14:44:42;;;;;;;3.20;1.70;;;;;;;;;;774095;178;919366;-66
2023/09/20 14:47:08;;;;;;;6.03;1.63;;;;;;;;;;772830;180;926444;-66
2023/09/20 14:49:34;;;;;;;2.40;1.30;;;;;;;;;;774586;180;915701;-58
2023/09/20 14:52:01;;;;;;;3.15;1.50;;;;;;;;;;769588;181;918981;-66
2023/09/20 14:54:25;;;;;;;4.33;1.70;;;;;;;;;;781339;181;821294;-58
2023/09/20 14:56:52;;;;;;;5.00;1.63;;;;;;;;;;774213;178;819055;-57
2023/09/20 14:59:17;;;;;;;3.50;1.30;;;;;;;;;;771957;180;923849;-65
2023/09/20 15:01:43;;;;;;;3.17;1.47;;;;;;;;;;779847;181;816849;-58